.
WxDataArchive / Data Records for 2009-11-01
2009-10-31 November 2009 2009-11-02

Data Records for Sunday, 01 November 2009

Time	Temp	Chill	HIndex	Humid	Dewpt	 Wind 	HiWind	WindDir	Rain 	Barom 
-----	----	-----	------	-----	-----	------	------	-------	-----	----- 
00:00	40.1	40.1	40.1	65	29.3	0	0	---	0.00	30.112 
00:05	40.1	40.1	40.1	66	29.7	0	1	270	0.00	30.112 
00:10	39.9	39.9	39.9	66	29.5	0	0	---	0.00	30.112 
00:15	39.9	39.9	39.9	67	29.8	0	1	270	0.00	30.114 
00:20	39.9	39.9	39.9	67	29.8	0	1	270	0.00	30.114 
00:25	39.9	39.9	39.9	67	29.8	0	1	270	0.00	30.114 
00:30	39.9	39.9	39.9	67	29.8	0	1	270	0.00	30.118 
00:35	40.1	40.1	40.1	67	30.0	0	1	270	0.00	30.118 
00:40	40.1	40.1	40.1	67	30.0	0	1	270	0.00	30.118 
00:45	39.9	39.9	39.9	67	29.8	0	0	---	0.00	30.119 
00:50	39.8	39.8	39.8	67	29.8	0	0	---	0.00	30.119 
00:55	39.6	39.6	39.6	68	29.9	0	0	---	0.00	30.119 
01:00	39.6	39.6	39.6	68	29.9	0	0	---	0.00	30.128 
01:05	39.6	39.6	39.6	68	29.9	0	0	---	0.00	30.128 
01:10	39.6	39.6	39.6	69	30.3	0	1	270	0.00	30.128 
01:15	39.6	39.6	39.6	69	30.3	0	1	270	0.00	30.129 
01:20	39.6	39.6	39.6	69	30.3	0	2	270	0.00	30.129 
01:25	39.6	39.6	39.6	70	30.6	0	1	270	0.00	30.129 
01:30	39.6	39.6	39.6	70	30.6	0	0	---	0.00	30.130 
01:35	39.6	39.6	39.6	70	30.6	0	0	---	0.00	30.130 
01:40	39.5	39.5	39.5	71	30.9	0	0	---	0.00	30.130 
01:45	39.3	39.3	39.3	71	30.7	0	0	---	0.00	30.139 
01:50	39.2	39.2	39.2	72	30.9	0	0	---	0.00	30.139 
01:55	39.1	39.1	39.1	73	31.2	0	0	---	0.00	30.139 
02:00	39.1	39.1	39.1	73	31.2	0	0	---	0.00	30.138 
02:05	39.2	39.2	39.2	77	32.6	0	1	270	0.00	30.146 
02:10	39.3	39.3	39.3	76	32.4	0	1	270	0.00	30.146 
02:15	39.5	39.5	39.5	76	32.6	0	0	---	0.00	30.145 
02:20	39.5	39.5	39.5	76	32.6	0	0	---	0.00	30.145 
02:25	39.5	39.5	39.5	75	32.2	0	0	---	0.00	30.145 
02:30	39.5	39.5	39.5	75	32.2	0	0	---	0.00	30.149 
02:35	39.5	39.5	39.5	75	32.2	0	0	---	0.00	30.149 
02:40	39.5	39.5	39.5	75	32.2	0	1	270	0.00	30.149 
02:45	39.5	39.5	39.5	75	32.2	0	0	---	0.00	30.154 
02:50	39.6	39.6	39.6	75	32.3	0	0	---	0.00	30.154 
02:55	39.6	39.6	39.6	74	32.0	0	0	---	0.00	30.154 
03:00	39.6	39.6	39.6	74	32.0	0	0	---	0.00	30.155 
03:05	39.6	39.6	39.6	75	32.3	0	0	---	0.00	30.155 
03:10	39.6	39.6	39.6	75	32.3	0	0	---	0.00	30.155 
03:15	39.6	39.6	39.6	75	32.3	0	0	---	0.00	30.154 
03:20	39.6	39.6	39.6	75	32.3	0	0	---	0.00	30.154 
03:25	39.5	39.5	39.5	75	32.2	0	0	---	0.00	30.154 
03:30	39.3	39.3	39.3	75	32.0	0	0	---	0.00	30.148 
03:35	39.1	39.1	39.1	75	31.9	0	0	---	0.00	30.148 
03:40	38.8	38.8	38.8	76	31.9	0	0	---	0.00	30.148 
03:45	38.3	38.3	38.3	76	31.4	0	0	---	0.00	30.159 
03:50	37.9	37.9	37.9	77	31.3	0	0	---	0.00	30.159 
03:55	37.5	37.5	37.5	78	31.3	0	0	---	0.00	30.159 
04:00	37.0	37.0	37.0	79	31.1	0	0	---	0.00	30.163 
04:05	36.6	36.6	36.6	80	31.0	0	0	---	0.00	30.163 
04:10	36.2	36.2	36.2	81	30.9	0	0	---	0.00	30.163 
04:15	35.9	35.9	35.9	81	30.6	0	0	---	0.00	30.162 
04:20	35.6	35.6	35.6	82	30.7	0	0	---	0.00	30.162 
04:25	35.3	35.3	35.3	83	30.7	0	0	---	0.00	30.162 
04:30	34.9	34.9	34.9	83	30.3	0	0	---	0.00	30.166 
04:35	34.6	34.6	34.6	84	30.3	0	0	---	0.00	30.166 
04:40	34.3	34.3	34.3	84	30.0	0	0	---	0.00	30.166 
04:45	34.1	34.1	34.1	85	30.1	0	0	---	0.00	30.168 
04:50	33.8	33.8	33.8	85	29.8	0	0	---	0.00	30.168 
04:55	33.5	33.5	33.5	86	29.8	0	0	---	0.00	30.168 
05:00	33.4	33.4	33.4	86	29.7	0	0	---	0.00	30.171 
05:05	33.1	33.1	33.1	87	29.7	0	0	---	0.00	30.171 
05:10	32.9	32.9	32.9	87	29.5	0	0	---	0.00	30.171 
05:15	32.8	32.8	32.8	88	29.6	0	0	---	0.00	30.169 
05:20	32.7	32.7	32.7	88	29.5	0	0	---	0.00	30.169 
05:25	32.5	32.5	32.5	88	29.3	0	0	---	0.00	30.169 
05:30	32.4	32.4	32.4	89	29.5	0	0	---	0.00	30.179 
05:35	32.2	32.2	32.2	89	29.3	0	0	---	0.00	30.179 
05:40	32.1	32.1	32.1	89	29.2	0	0	---	0.00	30.179 
05:45	31.9	31.9	31.9	89	29.0	0	0	---	0.00	30.185 
05:50	31.8	31.8	31.8	89	28.9	0	0	---	0.00	30.185 
05:55	31.8	31.8	31.8	90	29.2	0	0	---	0.00	30.185 
06:00	31.8	31.8	31.8	90	29.2	0	0	---	0.00	30.188 
06:05	31.6	31.6	31.6	90	29.0	0	0	---	0.00	30.188 
06:10	31.5	31.5	31.5	90	28.9	0	0	---	0.00	30.188 
06:15	31.3	31.3	31.3	90	28.7	0	0	---	0.00	30.200 
06:20	31.2	31.2	31.2	90	28.6	0	0	---	0.00	30.200 
06:25	31.2	31.2	31.2	90	28.6	0	0	---	0.00	30.200 
06:30	31.0	31.0	31.0	91	28.7	0	0	---	0.00	30.202 
06:35	30.9	30.9	30.9	91	28.6	0	0	---	0.00	30.202 
06:40	30.7	30.7	30.7	91	28.4	0	0	---	0.00	30.202 
06:45	30.7	30.7	30.7	91	28.4	0	0	---	0.00	30.209 
06:50	30.6	30.6	30.6	91	28.3	0	0	---	0.00	30.209 
06:55	30.6	30.6	30.6	91	28.3	0	0	---	0.00	30.209 
07:00	30.4	30.4	30.4	91	28.1	0	0	---	0.00	30.216 
07:05	30.4	30.4	30.4	91	28.1	0	0	---	0.00	30.216 
07:10	30.4	30.4	30.4	91	28.1	0	0	---	0.00	30.216 
07:15	30.3	30.3	30.3	92	28.3	0	0	---	0.00	30.224 
07:20	30.3	30.3	30.3	92	28.3	0	0	---	0.00	30.224 
07:25	30.3	30.3	30.3	92	28.3	0	0	---	0.00	30.224 
07:30	30.1	30.1	30.1	92	28.1	0	0	---	0.00	30.230 
07:35	30.1	30.1	30.1	92	28.1	0	0	---	0.00	30.230 
07:40	30.3	30.3	30.3	92	28.3	0	0	---	0.00	30.230 
07:45	30.3	30.3	30.3	92	28.3	0	0	---	0.00	30.237 
07:50	30.4	30.4	30.4	92	28.4	0	0	---	0.00	30.237 
07:55	30.6	30.6	30.6	92	28.6	0	0	---	0.00	30.237 
08:00	31.2	31.2	31.2	93	29.4	0	0	---	0.00	30.243 
08:05	32.1	32.1	32.1	94	30.6	0	0	---	0.00	30.243 
08:10	32.9	32.9	32.9	94	31.4	0	0	---	0.00	30.243 
08:15	33.5	33.5	33.5	94	32.0	0	0	---	0.00	30.246 
08:20	34.3	34.3	34.3	94	32.8	0	0	---	0.00	30.246 
08:25	35.5	35.5	35.5	94	33.9	0	0	---	0.00	30.246 
08:30	36.0	36.0	36.0	93	34.2	0	0	---	0.00	30.247 
08:35	36.2	36.2	36.2	92	34.1	0	0	---	0.00	30.247 
08:40	36.6	36.6	36.6	92	34.5	0	0	---	0.00	30.247 
08:45	37.2	37.2	37.2	90	34.5	0	1	0	0.00	30.255 
08:50	37.8	37.8	37.8	89	34.9	0	0	---	0.00	30.255 
08:55	38.5	38.5	38.5	87	35.0	0	0	---	0.00	30.255 
09:00	39.3	39.3	39.3	85	35.2	0	0	---	0.00	30.257 
09:05	39.9	39.9	39.9	83	35.2	0	1	180	0.00	30.257 
09:10	40.6	40.6	40.6	80	34.9	0	1	180	0.00	30.257 
09:15	41.1	41.1	41.1	76	34.1	0	1	180	0.00	30.258 
09:20	42.2	42.2	42.2	73	34.2	0	2	180	0.00	30.258 
09:25	43.1	43.1	43.1	69	33.6	0	2	158	0.00	30.258 
09:30	43.8	43.8	43.8	59	30.4	1	2	158	0.00	30.257 
09:35	44.6	44.6	44.6	58	30.7	1	3	158	0.00	30.257 
09:40	45.2	45.2	45.2	57	30.9	0	2	112	0.00	30.257 
09:45	45.8	45.8	45.8	55	30.6	0	2	112	0.00	30.256 
09:50	46.2	46.2	46.2	56	31.4	1	3	112	0.00	30.256 
09:55	46.4	46.4	46.4	56	31.6	0	1	112	0.00	30.256 
10:00	46.7	46.7	46.7	49	28.6	1	4	112	0.00	30.261 
10:05	47.0	47.0	47.0	51	29.8	1	4	90	0.00	30.261 
10:10	47.0	47.0	47.0	49	28.8	1	3	90	0.00	30.261 
10:15	47.3	47.3	47.3	49	29.1	0	1	90	0.00	30.267 
10:20	47.7	47.7	47.7	49	29.5	1	3	90	0.00	30.267 
10:25	47.6	47.6	47.6	49	29.4	1	4	112	0.00	30.267 
10:30	47.6	47.6	47.6	49	29.4	1	2	135	0.00	30.269 
10:35	47.6	47.6	47.6	50	29.9	1	4	90	0.00	30.269 
10:40	47.7	47.7	47.7	50	30.0	0	1	90	0.00	30.269 
10:45	47.6	47.6	47.6	51	30.4	0	2	90	0.00	30.271 
10:50	47.4	47.4	47.4	47	28.2	0	2	90	0.00	30.271 
10:55	47.0	47.0	47.0	48	28.3	0	2	90	0.00	30.271 
11:00	46.8	46.8	46.8	48	28.2	0	1	90	0.00	30.275 
11:05	47.0	47.0	47.0	52	30.3	0	3	90	0.00	30.275 
11:10	47.3	47.3	47.3	52	30.6	1	3	90	0.00	30.275 
11:15	47.3	47.3	47.3	51	30.1	0	2	90	0.00	30.282 
11:20	47.1	47.1	47.1	50	29.4	0	2	90	0.00	30.282 
11:25	47.1	47.1	47.1	52	30.4	1	3	90	0.00	30.282 
11:30	47.0	47.0	47.0	49	28.8	1	4	90	0.00	30.274 
11:35	46.8	46.8	46.8	51	29.6	1	3	90	0.00	30.274 
11:40	46.8	46.8	46.8	49	28.7	0	2	90	0.00	30.274 
11:45	47.0	47.0	47.0	50	29.3	0	2	90	0.00	30.272 
11:50	47.1	47.1	47.1	50	29.4	2	5	90	0.00	30.272 
11:55	47.1	47.1	47.1	50	29.4	1	4	90	0.00	30.272 
12:00	47.1	47.1	47.1	49	28.9	1	2	112	0.00	30.271 
12:05	47.0	47.0	47.0	50	29.3	1	4	90	0.00	30.271 
12:10	46.7	46.7	46.7	51	29.5	1	3	90	0.00	30.271 
12:15	47.0	47.0	47.0	50	29.3	1	3	90	0.00	30.261 
12:20	47.3	47.3	47.3	51	30.1	0	1	135	0.00	30.261 
12:25	47.6	47.6	47.6	51	30.4	1	3	248	0.00	30.261 
12:30	47.7	47.7	47.7	50	30.0	1	4	90	0.00	30.256 
12:35	47.9	47.9	47.9	50	30.2	1	2	90	0.00	30.256 
12:40	47.9	47.9	47.9	47	28.7	1	3	90	0.00	30.256 
12:45	47.9	47.9	47.9	50	30.2	0	3	90	0.00	30.253 
12:50	47.9	47.9	47.9	49	29.7	0	2	90	0.00	30.253 
12:55	48.3	48.3	48.3	52	31.5	0	1	90	0.00	30.253 
13:00	48.9	48.9	48.9	50	31.1	1	2	248	0.00	30.242 
13:05	49.1	49.1	49.1	50	31.3	1	2	248	0.00	30.242 
13:10	48.6	48.6	48.6	47	29.3	0	2	248	0.00	30.242 
13:15	48.6	48.6	48.6	48	29.8	0	3	248	0.00	30.238 
13:20	48.8	48.8	48.8	47	29.5	1	4	112	0.00	30.238 
13:25	48.6	48.6	48.6	48	29.8	2	4	112	0.00	30.238 
13:30	48.5	48.5	48.5	48	29.7	1	2	112	0.00	30.234 
13:35	48.9	48.9	48.9	48	30.1	1	4	90	0.00	30.234 
13:40	48.9	48.9	48.9	47	29.6	1	4	90	0.00	30.234 
13:45	49.1	49.1	49.1	49	30.8	0	3	90	0.00	30.236 
13:50	49.4	49.4	49.4	49	31.0	0	1	90	0.00	30.236 
13:55	49.4	49.4	49.4	48	30.5	1	5	90	0.00	30.236 
14:00	49.4	49.4	49.4	46	29.5	0	2	90	0.00	30.236 
14:05	49.6	49.6	49.6	47	30.2	0	3	90	0.00	30.236 
14:10	49.6	49.6	49.6	46	29.7	1	3	112	0.00	30.236 
14:15	49.6	49.6	49.6	45	29.1	1	3	112	0.00	30.236 
14:20	49.6	49.6	49.6	47	30.2	0	2	112	0.00	30.236 
14:25	49.9	49.9	49.9	50	32.0	0	2	112	0.00	30.236 
14:30	50.1	50.1	50.1	46	30.1	0	3	112	0.00	30.236 
14:35	49.9	49.9	49.9	44	28.9	1	2	112	0.00	30.236 
14:40	50.1	50.1	50.1	44	29.0	0	2	112	0.00	30.236 
14:45	50.2	50.2	50.2	46	30.2	0	3	112	0.00	30.233 
14:50	50.2	50.2	50.2	45	29.7	0	1	112	0.00	30.233 
14:55	50.5	50.5	50.5	43	28.8	0	2	112	0.00	30.233 
15:00	51.0	51.0	51.0	43	29.3	0	1	248	0.00	30.230 
15:05	51.0	51.0	51.0	44	29.9	0	1	248	0.00	30.230 
15:10	51.1	51.1	51.1	45	30.5	0	1	248	0.00	30.230 
15:15	51.3	51.3	51.3	46	31.2	0	2	248	0.00	30.234 
15:20	51.1	51.1	51.1	42	28.8	0	1	248	0.00	30.234 
15:25	51.0	51.0	51.0	45	30.4	0	2	248	0.00	30.234 
15:30	51.0	51.0	51.0	43	29.3	0	2	248	0.00	30.233 
15:35	51.0	51.0	51.0	46	31.0	0	1	248	0.00	30.233 
15:40	50.8	50.8	50.8	43	29.1	0	1	248	0.00	30.233 
15:45	50.8	50.8	50.8	44	29.7	1	4	248	0.00	30.227 
15:50	50.8	50.8	50.8	44	29.7	0	1	248	0.00	30.227 
15:55	50.5	50.5	50.5	43	28.8	0	1	248	0.00	30.227 
16:00	50.5	50.5	50.5	47	31.0	0	1	248	0.00	30.225 
16:05	50.5	50.5	50.5	46	30.5	0	1	248	0.00	30.225 
16:10	50.5	50.5	50.5	46	30.5	0	1	248	0.00	30.225 
16:15	50.5	50.5	50.5	45	30.0	0	1	248	0.00	30.229 
16:20	50.4	50.4	50.4	45	29.9	0	1	248	0.00	30.229 
16:25	50.1	50.1	50.1	44	29.0	0	0	---	0.00	30.229 
16:30	49.9	49.9	49.9	44	28.9	0	1	248	0.00	30.234 
16:35	49.9	49.9	49.9	46	30.0	0	2	248	0.00	30.234 
16:40	49.9	49.9	49.9	46	30.0	0	1	248	0.00	30.234 
16:45	49.8	49.8	49.8	46	29.9	0	1	248	0.00	30.233 
16:50	49.6	49.6	49.6	46	29.7	0	1	248	0.00	30.233 
16:55	49.5	49.5	49.5	45	29.0	0	0	---	0.00	30.233 
17:00	49.4	49.4	49.4	44	28.4	0	1	248	0.00	30.230 
17:05	49.2	49.2	49.2	47	29.8	0	0	---	0.00	30.230 
17:10	48.8	48.8	48.8	46	28.9	0	0	---	0.00	30.230 
17:15	48.5	48.5	48.5	47	29.2	0	0	---	0.00	30.230 
17:20	48.2	48.2	48.2	48	29.4	0	0	---	0.00	30.230 
17:25	47.7	47.7	47.7	49	29.5	0	0	---	0.00	30.230 
17:30	47.4	47.4	47.4	52	30.7	0	0	---	0.00	30.232 
17:35	47.0	47.0	47.0	52	30.3	0	0	---	0.00	30.232 
17:40	46.5	46.5	46.5	54	30.8	0	0	---	0.00	30.232 
17:45	46.1	46.1	46.1	56	31.3	0	0	---	0.00	30.236 
17:50	45.7	45.7	45.7	56	30.9	0	0	---	0.00	30.236 
17:55	45.2	45.2	45.2	58	31.3	0	0	---	0.00	30.236 
18:00	44.8	44.8	44.8	58	30.9	0	0	---	0.00	30.247 
18:05	44.3	44.3	44.3	59	30.9	0	0	---	0.00	30.247 
18:10	44.1	44.1	44.1	59	30.7	0	0	---	0.00	30.247 
18:15	43.8	43.8	43.8	61	31.2	0	0	---	0.00	30.250 
18:20	43.3	43.3	43.3	62	31.2	0	0	---	0.00	30.250 
18:25	43.2	43.2	43.2	62	31.1	0	0	---	0.00	30.250 
18:30	42.9	42.9	42.9	64	31.6	0	0	---	0.00	30.253 
18:35	42.9	42.9	42.9	64	31.6	0	0	---	0.00	30.253 
18:40	42.9	42.9	42.9	65	32.0	0	0	---	0.00	30.253 
18:45	43.1	43.1	43.1	65	32.1	0	0	---	0.00	30.253 
18:50	43.1	43.1	43.1	64	31.8	0	0	---	0.00	30.253 
18:55	43.1	43.1	43.1	63	31.4	0	0	---	0.00	30.253 
19:00	43.1	43.1	43.1	63	31.4	0	0	---	0.00	30.253 
19:05	43.1	43.1	43.1	63	31.4	0	0	---	0.00	30.253 
19:10	43.2	43.2	43.2	63	31.5	0	0	---	0.00	30.253 
19:15	43.1	43.1	43.1	62	31.0	0	0	---	0.00	30.251 
19:20	43.1	43.1	43.1	62	31.0	0	0	---	0.00	30.251 
19:25	43.2	43.2	43.2	62	31.1	0	0	---	0.00	30.251 
19:30	43.2	43.2	43.2	62	31.1	0	0	---	0.00	30.251 
19:35	43.2	43.2	43.2	62	31.1	0	0	---	0.00	30.251 
19:40	43.3	43.3	43.3	63	31.6	0	0	---	0.00	30.251 
19:45	43.3	43.3	43.3	62	31.2	0	0	---	0.00	30.245 
19:50	43.3	43.3	43.3	62	31.2	0	0	---	0.00	30.245 
19:55	43.2	43.2	43.2	62	31.1	0	0	---	0.00	30.245 
20:00	43.1	43.1	43.1	62	31.0	0	0	---	0.00	30.239 
20:05	42.9	42.9	42.9	62	30.8	0	0	---	0.00	30.239 
20:10	42.8	42.8	42.8	63	31.1	0	0	---	0.00	30.239 
20:15	42.6	42.6	42.6	64	31.3	0	0	---	0.00	30.237 
20:20	42.3	42.3	42.3	65	31.4	0	0	---	0.00	30.237 
20:25	42.1	42.1	42.1	65	31.2	0	0	---	0.00	30.237 
20:30	41.8	41.8	41.8	66	31.3	0	0	---	0.00	30.243 
20:35	41.5	41.5	41.5	67	31.4	0	0	---	0.00	30.243 
20:40	41.1	41.1	41.1	68	31.4	0	0	---	0.00	30.243 
20:45	40.8	40.8	40.8	69	31.4	0	0	---	0.00	30.246 
20:50	40.5	40.5	40.5	69	31.1	0	0	---	0.00	30.246 
20:55	40.2	40.2	40.2	70	31.2	0	0	---	0.00	30.246 
21:00	39.9	39.9	39.9	70	30.9	0	0	---	0.00	30.249 
21:05	39.6	39.6	39.6	71	31.0	0	0	---	0.00	30.249 
21:10	39.3	39.3	39.3	71	30.7	0	0	---	0.00	30.249 
21:15	39.1	39.1	39.1	72	30.8	0	0	---	0.00	30.245 
21:20	38.9	38.9	38.9	73	31.0	0	0	---	0.00	30.245 
21:25	38.6	38.6	38.6	74	31.0	0	0	---	0.00	30.245 
21:30	38.5	38.5	38.5	75	31.3	0	0	---	0.00	30.245 
21:35	38.2	38.2	38.2	76	31.3	0	0	---	0.00	30.245 
21:40	38.0	38.0	38.0	76	31.1	0	0	---	0.00	30.245 
21:45	37.9	37.9	37.9	77	31.3	0	0	---	0.00	30.244 
21:50	37.9	37.9	37.9	77	31.3	0	0	---	0.00	30.244 
21:55	37.8	37.8	37.8	78	31.6	0	0	---	0.00	30.244 
22:00	37.8	37.8	37.8	78	31.6	0	1	248	0.00	30.237 
22:05	37.9	37.9	37.9	77	31.3	0	0	---	0.00	30.237 
22:10	37.9	37.9	37.9	77	31.3	0	0	---	0.00	30.237 
22:15	38.0	38.0	38.0	77	31.4	0	0	---	0.00	30.240 
22:20	38.0	38.0	38.0	77	31.4	0	0	---	0.00	30.240 
22:25	38.0	38.0	38.0	77	31.4	0	0	---	0.00	30.240 
22:30	37.9	37.9	37.9	77	31.3	0	0	---	0.00	30.238 
22:35	37.8	37.8	37.8	77	31.2	0	0	---	0.00	30.238 
22:40	37.6	37.6	37.6	77	31.1	0	0	---	0.00	30.238 
22:45	37.5	37.5	37.5	77	31.0	0	0	---	0.00	30.240 
22:50	37.3	37.3	37.3	77	30.8	0	0	---	0.00	30.240 
22:55	37.2	37.2	37.2	77	30.7	0	0	---	0.00	30.240 

CoCoRaHS
IN-AL-39
A2 Web Hosting
Creative Commons License
GoDaddy
search engine by freefind advanced

loaded 2018-11-16 23:43:39 • last modified 2010-11-18 10:43:29
Privacy PolicyDisclaimer
• wx.awcolley.com is powered by PmWiki v.2002016 •
• all content (unless otherwise noted) © 2018 A W Colley